sensor_id;sensor_type;location;lat;lon;timestamp;temperature;humidity
56076;DHT22;41951;49.022;12.066;2022-08-11T00:00:37;18.60;83.60
56076;DHT22;41951;49.022;12.066;2022-08-11T00:03:06;18.70;83.50
56076;DHT22;41951;49.022;12.066;2022-08-11T00:05:42;18.50;83.60
56076;DHT22;41951;49.022;12.066;2022-08-11T00:08:09;18.50;83.90
56076;DHT22;41951;49.022;12.066;2022-08-11T00:10:36;18.50;83.90
56076;DHT22;41951;49.022;12.066;2022-08-11T00:13:04;18.40;84.20
56076;DHT22;41951;49.022;12.066;2022-08-11T00:15:41;18.30;84.60
56076;DHT22;41951;49.022;12.066;2022-08-11T00:18:09;18.30;85.00
56076;DHT22;41951;49.022;12.066;2022-08-11T00:20:39;18.30;85.60
56076;DHT22;41951;49.022;12.066;2022-08-11T00:23:10;18.20;86.00
56076;DHT22;41951;49.022;12.066;2022-08-11T00:25:41;18.20;86.80
56076;DHT22;41951;49.022;12.066;2022-08-11T00:28:33;18.20;87.00
56076;DHT22;41951;49.022;12.066;2022-08-11T00:31:05;18.20;87.40
56076;DHT22;41951;49.022;12.066;2022-08-11T00:33:39;18.20;87.50
56076;DHT22;41951;49.022;12.066;2022-08-11T00:36:13;18.20;88.20
56076;DHT22;41951;49.022;12.066;2022-08-11T00:38:41;18.40;88.40
56076;DHT22;41951;49.022;12.066;2022-08-11T00:41:28;18.30;88.40
56076;DHT22;41951;49.022;12.066;2022-08-11T00:44:39;18.30;88.80
56076;DHT22;41951;49.022;12.066;2022-08-11T00:47:17;18.30;90.00
56076;DHT22;41951;49.022;12.066;2022-08-11T00:50:00;18.20;89.90
56076;DHT22;41951;49.022;12.066;2022-08-11T01:09:48;18.20;90.80
56076;DHT22;41951;49.022;12.066;2022-08-11T01:27:34;18.40;91.20
56076;DHT22;41951;49.022;12.066;2022-08-11T01:30:07;18.30;90.90
56076;DHT22;41951;49.022;12.066;2022-08-11T01:44:11;18.10;91.60
56076;DHT22;41951;49.022;12.066;2022-08-11T01:55:33;17.80;92.00
56076;DHT22;41951;49.022;12.066;2022-08-11T02:00:29;17.80;92.40
56076;DHT22;41951;49.022;12.066;2022-08-11T02:03:23;17.90;92.60
56076;DHT22;41951;49.022;12.066;2022-08-11T02:06:03;17.90;92.80
56076;DHT22;41951;49.022;12.066;2022-08-11T02:09:12;17.90;92.80
56076;DHT22;41951;49.022;12.066;2022-08-11T02:11:44;17.90;92.80
56076;DHT22;41951;49.022;12.066;2022-08-11T02:14:25;17.80;93.00
56076;DHT22;41951;49.022;12.066;2022-08-11T02:22:53;17.70;93.50
56076;DHT22;41951;49.022;12.066;2022-08-11T02:26:08;17.60;93.60
56076;DHT22;41951;49.022;12.066;2022-08-11T02:29:03;17.70;93.70
56076;DHT22;41951;49.022;12.066;2022-08-11T02:37:41;17.50;93.90
56076;DHT22;41951;49.022;12.066;2022-08-11T02:40:33;17.50;94.10
56076;DHT22;41951;49.022;12.066;2022-08-11T02:43:21;17.40;94.20
56076;DHT22;41951;49.022;12.066;2022-08-11T02:53:52;17.30;94.80
56076;DHT22;41951;49.022;12.066;2022-08-11T02:56:44;17.20;95.10
56076;DHT22;41951;49.022;12.066;2022-08-11T03:04:57;17.00;95.50
56076;DHT22;41951;49.022;12.066;2022-08-11T03:07:26;16.90;95.70
56076;DHT22;41951;49.022;12.066;2022-08-11T03:10:19;16.90;95.80
56076;DHT22;41951;49.022;12.066;2022-08-11T03:13:00;16.90;96.00
56076;DHT22;41951;49.022;12.066;2022-08-11T03:18:49;16.80;96.20
56076;DHT22;41951;49.022;12.066;2022-08-11T03:21:28;16.90;96.30
56076;DHT22;41951;49.022;12.066;2022-08-11T03:24:09;16.90;96.40
56076;DHT22;41951;49.022;12.066;2022-08-11T03:29:33;16.80;96.60
56076;DHT22;41951;49.022;12.066;2022-08-11T03:34:32;16.80;97.10
56076;DHT22;41951;49.022;12.066;2022-08-11T03:45:54;16.90;96.80
56076;DHT22;41951;49.022;12.066;2022-08-11T03:48:29;16.90;96.70
56076;DHT22;41951;49.022;12.066;2022-08-11T03:54:09;16.90;96.70
56076;DHT22;41951;49.022;12.066;2022-08-11T04:05:26;17.00;96.30
56076;DHT22;41951;49.022;12.066;2022-08-11T04:35:33;17.70;93.90
56076;DHT22;41951;49.022;12.066;2022-08-11T04:41:32;17.70;93.70
56076;DHT22;41951;49.022;12.066;2022-08-11T04:47:43;17.80;94.00
56076;DHT22;41951;49.022;12.066;2022-08-11T04:51:07;17.90;93.90
56076;DHT22;41951;49.022;12.066;2022-08-11T04:56:58;17.90;93.90
56076;DHT22;41951;49.022;12.066;2022-08-11T05:17:08;17.90;94.10
56076;DHT22;41951;49.022;12.066;2022-08-11T05:19:53;18.00;94.20
56076;DHT22;41951;49.022;12.066;2022-08-11T05:22:43;18.10;94.20
56076;DHT22;41951;49.022;12.066;2022-08-11T05:25:31;18.20;94.10
56076;DHT22;41951;49.022;12.066;2022-08-11T05:28:39;18.30;93.90
56076;DHT22;41951;49.022;12.066;2022-08-11T05:31:32;18.40;93.80
56076;DHT22;41951;49.022;12.066;2022-08-11T05:34:22;18.40;93.60
56076;DHT22;41951;49.022;12.066;2022-08-11T05:37:11;18.30;93.50
56076;DHT22;41951;49.022;12.066;2022-08-11T05:39:48;18.30;93.60
56076;DHT22;41951;49.022;12.066;2022-08-11T05:42:36;18.30;93.60
56076;DHT22;41951;49.022;12.066;2022-08-11T05:45:21;18.40;93.60
56076;DHT22;41951;49.022;12.066;2022-08-11T05:48:06;18.60;93.50
56076;DHT22;41951;49.022;12.066;2022-08-11T05:51:00;18.70;93.30
56076;DHT22;41951;49.022;12.066;2022-08-11T05:53:56;18.70;93.10
56076;DHT22;41951;49.022;12.066;2022-08-11T05:57:08;18.70;93.00
56076;DHT22;41951;49.022;12.066;2022-08-11T05:59:34;18.80;92.90
56076;DHT22;41951;49.022;12.066;2022-08-11T06:02:06;18.90;92.90
56076;DHT22;41951;49.022;12.066;2022-08-11T06:04:33;19.00;92.90
56076;DHT22;41951;49.022;12.066;2022-08-11T06:07:09;19.10;92.80
56076;DHT22;41951;49.022;12.066;2022-08-11T06:12:44;19.40;92.60
56076;DHT22;41951;49.022;12.066;2022-08-11T06:15:12;19.40;92.30
56076;DHT22;41951;49.022;12.066;2022-08-11T06:17:45;19.50;92.30
56076;DHT22;41951;49.022;12.066;2022-08-11T06:20:12;19.60;92.10
56076;DHT22;41951;49.022;12.066;2022-08-11T06:22:41;19.70;92.10
56076;DHT22;41951;49.022;12.066;2022-08-11T06:25:09;19.70;91.90
56076;DHT22;41951;49.022;12.066;2022-08-11T06:27:37;19.80;91.80
56076;DHT22;41951;49.022;12.066;2022-08-11T06:30:05;20.00;91.70
56076;DHT22;41951;49.022;12.066;2022-08-11T06:32:43;20.10;91.60
56076;DHT22;41951;49.022;12.066;2022-08-11T06:35:29;20.20;91.40
56076;DHT22;41951;49.022;12.066;2022-08-11T06:38:08;20.20;90.50
56076;DHT22;41951;49.022;12.066;2022-08-11T06:40:53;20.40;90.50
56076;DHT22;41951;49.022;12.066;2022-08-11T06:43:52;20.40;90.50
56076;DHT22;41951;49.022;12.066;2022-08-11T06:46:30;20.60;90.20
56076;DHT22;41951;49.022;12.066;2022-08-11T06:48:59;20.70;89.70
56076;DHT22;41951;49.022;12.066;2022-08-11T06:51:27;20.80;89.90
56076;DHT22;41951;49.022;12.066;2022-08-11T06:53:55;20.90;89.50
56076;DHT22;41951;49.022;12.066;2022-08-11T06:56:31;20.90;89.10
56076;DHT22;41951;49.022;12.066;2022-08-11T06:59:17;21.10;88.40
56076;DHT22;41951;49.022;12.066;2022-08-11T07:02:14;21.20;88.40
56076;DHT22;41951;49.022;12.066;2022-08-11T07:04:48;21.30;87.90
56076;DHT22;41951;49.022;12.066;2022-08-11T07:07:41;21.40;87.40
56076;DHT22;41951;49.022;12.066;2022-08-11T07:11:05;21.50;86.30
56076;DHT22;41951;49.022;12.066;2022-08-11T07:13:58;21.70;85.90
56076;DHT22;41951;49.022;12.066;2022-08-11T07:16:44;21.80;85.50
56076;DHT22;41951;49.022;12.066;2022-08-11T07:19:15;21.90;85.20
56076;DHT22;41951;49.022;12.066;2022-08-11T07:22:02;22.00;85.00
56076;DHT22;41951;49.022;12.066;2022-08-11T07:25:13;22.00;84.00
56076;DHT22;41951;49.022;12.066;2022-08-11T07:28:11;22.00;83.60
56076;DHT22;41951;49.022;12.066;2022-08-11T07:31:02;22.10;83.20
56076;DHT22;41951;49.022;12.066;2022-08-11T07:33:45;22.20;82.80
56076;DHT22;41951;49.022;12.066;2022-08-11T07:36:13;22.40;82.20
56076;DHT22;41951;49.022;12.066;2022-08-11T07:38:46;22.40;82.40
56076;DHT22;41951;49.022;12.066;2022-08-11T07:41:20;22.50;80.90
56076;DHT22;41951;49.022;12.066;2022-08-11T07:43:49;22.60;80.20
56076;DHT22;41951;49.022;12.066;2022-08-11T07:46:17;22.60;80.50
56076;DHT22;41951;49.022;12.066;2022-08-11T07:49:03;22.70;80.00
56076;DHT22;41951;49.022;12.066;2022-08-11T07:51:49;22.80;80.00
56076;DHT22;41951;49.022;12.066;2022-08-11T07:54:34;22.90;79.60
56076;DHT22;41951;49.022;12.066;2022-08-11T07:57:02;23.10;79.30
56076;DHT22;41951;49.022;12.066;2022-08-11T07:59:48;23.20;78.80
56076;DHT22;41951;49.022;12.066;2022-08-11T08:02:32;23.40;77.90
56076;DHT22;41951;49.022;12.066;2022-08-11T08:05:18;23.50;76.80
56076;DHT22;41951;49.022;12.066;2022-08-11T08:08:03;23.60;76.30
56076;DHT22;41951;49.022;12.066;2022-08-11T08:10:48;23.50;75.70
56076;DHT22;41951;49.022;12.066;2022-08-11T08:13:33;23.60;75.60
56076;DHT22;41951;49.022;12.066;2022-08-11T08:16:19;23.70;75.40
56076;DHT22;41951;49.022;12.066;2022-08-11T08:19:04;23.70;74.00
56076;DHT22;41951;49.022;12.066;2022-08-11T08:21:30;23.80;72.90
56076;DHT22;41951;49.022;12.066;2022-08-11T08:23:57;23.90;72.90
56076;DHT22;41951;49.022;12.066;2022-08-11T08:26:24;24.00;72.90
56076;DHT22;41951;49.022;12.066;2022-08-11T08:29:08;24.10;72.30
56076;DHT22;41951;49.022;12.066;2022-08-11T08:31:54;24.30;72.00
56076;DHT22;41951;49.022;12.066;2022-08-11T08:34:21;24.50;71.80
56076;DHT22;41951;49.022;12.066;2022-08-11T08:36:49;24.60;71.50
56076;DHT22;41951;49.022;12.066;2022-08-11T08:39:21;24.50;70.70
56076;DHT22;41951;49.022;12.066;2022-08-11T08:41:53;24.50;70.90
56076;DHT22;41951;49.022;12.066;2022-08-11T08:44:21;24.60;69.70
56076;DHT22;41951;49.022;12.066;2022-08-11T08:46:53;24.60;70.00
56076;DHT22;41951;49.022;12.066;2022-08-11T08:49:36;24.70;70.10
56076;DHT22;41951;49.022;12.066;2022-08-11T08:52:04;24.60;68.30
56076;DHT22;41951;49.022;12.066;2022-08-11T08:54:38;24.70;68.30
56076;DHT22;41951;49.022;12.066;2022-08-11T08:57:05;24.80;68.70
56076;DHT22;41951;49.022;12.066;2022-08-11T08:59:36;24.90;68.10
56076;DHT22;41951;49.022;12.066;2022-08-11T09:02:04;25.00;67.40
56076;DHT22;41951;49.022;12.066;2022-08-11T09:04:30;25.10;67.20
56076;DHT22;41951;49.022;12.066;2022-08-11T09:07:07;25.20;67.40
56076;DHT22;41951;49.022;12.066;2022-08-11T09:09:34;25.20;67.00
56076;DHT22;41951;49.022;12.066;2022-08-11T09:12:01;25.30;66.80
56076;DHT22;41951;49.022;12.066;2022-08-11T09:14:37;25.30;66.20
56076;DHT22;41951;49.022;12.066;2022-08-11T09:17:23;25.30;65.70
56076;DHT22;41951;49.022;12.066;2022-08-11T09:19:53;25.30;65.60
56076;DHT22;41951;49.022;12.066;2022-08-11T09:22:24;25.30;65.90
56076;DHT22;41951;49.022;12.066;2022-08-11T09:25:08;25.40;65.80
56076;DHT22;41951;49.022;12.066;2022-08-11T09:27:54;25.40;65.70
56076;DHT22;41951;49.022;12.066;2022-08-11T09:30:22;25.40;64.70
56076;DHT22;41951;49.022;12.066;2022-08-11T09:32:53;25.50;65.10
56076;DHT22;41951;49.022;12.066;2022-08-11T09:35:24;25.60;64.90
56076;DHT22;41951;49.022;12.066;2022-08-11T09:37:51;25.70;64.60
56076;DHT22;41951;49.022;12.066;2022-08-11T09:40:37;25.80;64.70
56076;DHT22;41951;49.022;12.066;2022-08-11T09:43:05;25.80;64.80
56076;DHT22;41951;49.022;12.066;2022-08-11T09:45:53;25.90;65.30
56076;DHT22;41951;49.022;12.066;2022-08-11T09:48:20;26.00;65.20
56076;DHT22;41951;49.022;12.066;2022-08-11T09:50:49;25.90;64.50
56076;DHT22;41951;49.022;12.066;2022-08-11T09:53:16;25.90;64.80
56076;DHT22;41951;49.022;12.066;2022-08-11T09:55:46;25.80;64.60
56076;DHT22;41951;49.022;12.066;2022-08-11T09:58:12;25.90;64.50
56076;DHT22;41951;49.022;12.066;2022-08-11T10:00:39;25.90;64.40
56076;DHT22;41951;49.022;12.066;2022-08-11T10:03:21;26.00;64.90
56076;DHT22;41951;49.022;12.066;2022-08-11T10:05:52;26.00;65.10
56076;DHT22;41951;49.022;12.066;2022-08-11T10:08:40;26.00;65.10
56076;DHT22;41951;49.022;12.066;2022-08-11T10:11:13;26.10;65.00
56076;DHT22;41951;49.022;12.066;2022-08-11T10:13:44;26.20;64.90
56076;DHT22;41951;49.022;12.066;2022-08-11T10:16:31;26.20;64.90
56076;DHT22;41951;49.022;12.066;2022-08-11T10:19:01;26.20;64.70
56076;DHT22;41951;49.022;12.066;2022-08-11T10:21:43;26.30;64.70
56076;DHT22;41951;49.022;12.066;2022-08-11T10:24:30;26.40;63.70
56076;DHT22;41951;49.022;12.066;2022-08-11T10:27:15;26.50;63.80
56076;DHT22;41951;49.022;12.066;2022-08-11T10:29:41;26.50;63.30
56076;DHT22;41951;49.022;12.066;2022-08-11T10:32:28;26.50;63.00
56076;DHT22;41951;49.022;12.066;2022-08-11T10:35:17;26.50;62.80
56076;DHT22;41951;49.022;12.066;2022-08-11T10:37:44;26.50;63.00
56076;DHT22;41951;49.022;12.066;2022-08-11T10:40:19;26.50;62.80
56076;DHT22;41951;49.022;12.066;2022-08-11T10:42:58;26.50;62.80
56076;DHT22;41951;49.022;12.066;2022-08-11T10:45:36;26.50;62.50
56076;DHT22;41951;49.022;12.066;2022-08-11T10:48:22;26.60;62.60
56076;DHT22;41951;49.022;12.066;2022-08-11T10:50:49;26.60;63.30
56076;DHT22;41951;49.022;12.066;2022-08-11T10:53:35;26.60;62.70
56076;DHT22;41951;49.022;12.066;2022-08-11T10:56:21;26.70;62.80
56076;DHT22;41951;49.022;12.066;2022-08-11T10:59:07;26.80;62.60
56076;DHT22;41951;49.022;12.066;2022-08-11T11:01:37;26.70;62.00
56076;DHT22;41951;49.022;12.066;2022-08-11T11:04:06;26.80;62.20
56076;DHT22;41951;49.022;12.066;2022-08-11T11:07:07;26.90;62.20
56076;DHT22;41951;49.022;12.066;2022-08-11T11:10:15;27.00;61.20
56076;DHT22;41951;49.022;12.066;2022-08-11T11:12:45;26.90;61.20
56076;DHT22;41951;49.022;12.066;2022-08-11T11:15:31;27.00;61.40
56076;DHT22;41951;49.022;12.066;2022-08-11T11:18:31;27.10;61.30
56076;DHT22;41951;49.022;12.066;2022-08-11T11:21:12;27.20;60.50
56076;DHT22;41951;49.022;12.066;2022-08-11T11:26:29;27.30;59.80
56076;DHT22;41951;49.022;12.066;2022-08-11T11:38:06;27.60;58.40
56076;DHT22;41951;49.022;12.066;2022-08-11T11:40:36;27.70;58.30
56076;DHT22;41951;49.022;12.066;2022-08-11T11:43:03;27.80;57.90
56076;DHT22;41951;49.022;12.066;2022-08-11T11:45:30;27.60;57.10
56076;DHT22;41951;49.022;12.066;2022-08-11T11:47:58;27.50;57.40
56076;DHT22;41951;49.022;12.066;2022-08-11T11:50:29;27.70;57.70
56076;DHT22;41951;49.022;12.066;2022-08-11T11:52:56;27.90;56.70
56076;DHT22;41951;49.022;12.066;2022-08-11T11:55:23;28.00;56.80
56076;DHT22;41951;49.022;12.066;2022-08-11T11:57:52;27.80;56.50
56076;DHT22;41951;49.022;12.066;2022-08-11T12:00:37;27.90;56.50
56076;DHT22;41951;49.022;12.066;2022-08-11T12:03:23;28.10;56.30
56076;DHT22;41951;49.022;12.066;2022-08-11T12:05:49;28.20;56.00
56076;DHT22;41951;49.022;12.066;2022-08-11T12:08:17;28.30;55.80
56076;DHT22;41951;49.022;12.066;2022-08-11T12:10:59;28.40;54.60
56076;DHT22;41951;49.022;12.066;2022-08-11T12:13:46;28.40;54.80
56076;DHT22;41951;49.022;12.066;2022-08-11T12:16:15;28.60;55.20
56076;DHT22;41951;49.022;12.066;2022-08-11T12:18:42;28.60;54.40
56076;DHT22;41951;49.022;12.066;2022-08-11T12:21:08;28.50;54.40
56076;DHT22;41951;49.022;12.066;2022-08-11T12:23:37;28.70;54.50
56076;DHT22;41951;49.022;12.066;2022-08-11T12:26:22;28.80;54.20
56076;DHT22;41951;49.022;12.066;2022-08-11T12:29:09;29.00;54.20
56076;DHT22;41951;49.022;12.066;2022-08-11T12:31:37;29.20;53.60
56076;DHT22;41951;49.022;12.066;2022-08-11T12:34:13;29.40;53.60
56076;DHT22;41951;49.022;12.066;2022-08-11T12:36:42;29.50;53.50
56076;DHT22;41951;49.022;12.066;2022-08-11T12:39:09;29.70;52.70
56076;DHT22;41951;49.022;12.066;2022-08-11T12:41:37;29.60;52.30
56076;DHT22;41951;49.022;12.066;2022-08-11T12:44:26;29.50;52.10
56076;DHT22;41951;49.022;12.066;2022-08-11T12:47:14;29.30;52.30
56076;DHT22;41951;49.022;12.066;2022-08-11T12:49:44;29.30;52.40
56076;DHT22;41951;49.022;12.066;2022-08-11T12:52:34;29.20;52.70
56076;DHT22;41951;49.022;12.066;2022-08-11T12:55:11;29.00;52.60
56076;DHT22;41951;49.022;12.066;2022-08-11T12:57:44;29.20;52.60
56076;DHT22;41951;49.022;12.066;2022-08-11T13:00:31;29.00;51.70
56076;DHT22;41951;49.022;12.066;2022-08-11T13:03:18;29.20;52.20
56076;DHT22;41951;49.022;12.066;2022-08-11T13:06:04;29.30;52.10
56076;DHT22;41951;49.022;12.066;2022-08-11T13:08:37;29.40;51.80
56076;DHT22;41951;49.022;12.066;2022-08-11T13:11:04;29.50;52.00
56076;DHT22;41951;49.022;12.066;2022-08-11T13:13:50;29.50;51.90
56076;DHT22;41951;49.022;12.066;2022-08-11T13:16:27;29.60;52.10
56076;DHT22;41951;49.022;12.066;2022-08-11T13:18:58;29.80;51.60
56076;DHT22;41951;49.022;12.066;2022-08-11T13:21:26;30.00;51.30
56076;DHT22;41951;49.022;12.066;2022-08-11T13:23:53;30.20;51.00
56076;DHT22;41951;49.022;12.066;2022-08-11T13:26:22;30.10;50.50
56076;DHT22;41951;49.022;12.066;2022-08-11T13:28:48;29.90;50.30
56076;DHT22;41951;49.022;12.066;2022-08-11T13:31:15;29.80;50.10
56076;DHT22;41951;49.022;12.066;2022-08-11T13:33:44;29.80;50.30
56076;DHT22;41951;49.022;12.066;2022-08-11T13:36:11;29.80;50.40
56076;DHT22;41951;49.022;12.066;2022-08-11T13:38:41;29.70;50.30
56076;DHT22;41951;49.022;12.066;2022-08-11T13:41:08;29.80;50.60
56076;DHT22;41951;49.022;12.066;2022-08-11T13:43:55;29.90;50.20
56076;DHT22;41951;49.022;12.066;2022-08-11T13:46:22;30.00;50.30
56076;DHT22;41951;49.022;12.066;2022-08-11T13:48:53;30.00;50.50
56076;DHT22;41951;49.022;12.066;2022-08-11T13:51:21;29.80;49.60
56076;DHT22;41951;49.022;12.066;2022-08-11T13:54:05;30.00;50.10
56076;DHT22;41951;49.022;12.066;2022-08-11T13:56:32;30.00;50.10
56076;DHT22;41951;49.022;12.066;2022-08-11T13:59:00;29.90;50.00
56076;DHT22;41951;49.022;12.066;2022-08-11T14:01:32;29.80;50.10
56076;DHT22;41951;49.022;12.066;2022-08-11T14:04:07;29.80;49.80
56076;DHT22;41951;49.022;12.066;2022-08-11T14:06:33;29.90;49.40
56076;DHT22;41951;49.022;12.066;2022-08-11T14:09:00;30.10;49.70
56076;DHT22;41951;49.022;12.066;2022-08-11T14:11:28;30.40;49.50
56076;DHT22;41951;49.022;12.066;2022-08-11T14:14:20;30.70;49.30
56076;DHT22;41951;49.022;12.066;2022-08-11T14:16:47;30.70;48.50
56076;DHT22;41951;49.022;12.066;2022-08-11T14:19:16;30.80;48.30
56076;DHT22;41951;49.022;12.066;2022-08-11T14:21:46;30.80;47.60
56076;DHT22;41951;49.022;12.066;2022-08-11T14:24:30;31.00;47.80
56076;DHT22;41951;49.022;12.066;2022-08-11T14:26:56;30.90;47.90
56076;DHT22;41951;49.022;12.066;2022-08-11T14:29:25;31.10;47.60
56076;DHT22;41951;49.022;12.066;2022-08-11T14:32:02;31.00;47.50
56076;DHT22;41951;49.022;12.066;2022-08-11T14:34:30;31.00;47.60
56076;DHT22;41951;49.022;12.066;2022-08-11T14:37:04;31.20;47.00
56076;DHT22;41951;49.022;12.066;2022-08-11T14:39:34;31.10;46.70
56076;DHT22;41951;49.022;12.066;2022-08-11T14:42:06;31.20;47.00
56076;DHT22;41951;49.022;12.066;2022-08-11T14:44:55;31.20;47.30
56076;DHT22;41951;49.022;12.066;2022-08-11T14:47:41;31.20;47.20
56076;DHT22;41951;49.022;12.066;2022-08-11T14:50:11;31.70;47.30
56076;DHT22;41951;49.022;12.066;2022-08-11T14:52:47;32.00;47.20
56076;DHT22;41951;49.022;12.066;2022-08-11T14:55:14;32.20;47.70
56076;DHT22;41951;49.022;12.066;2022-08-11T14:58:01;32.40;46.90
56076;DHT22;41951;49.022;12.066;2022-08-11T15:00:27;32.60;46.80
56076;DHT22;41951;49.022;12.066;2022-08-11T15:02:54;32.40;47.10
56076;DHT22;41951;49.022;12.066;2022-08-11T15:05:50;32.10;47.40
56076;DHT22;41951;49.022;12.066;2022-08-11T15:08:16;31.90;47.70
56076;DHT22;41951;49.022;12.066;2022-08-11T15:10:43;31.70;47.60
56076;DHT22;41951;49.022;12.066;2022-08-11T15:13:09;31.60;47.80
56076;DHT22;41951;49.022;12.066;2022-08-11T15:15:36;31.60;47.80
56076;DHT22;41951;49.022;12.066;2022-08-11T15:18:22;31.40;48.20
56076;DHT22;41951;49.022;12.066;2022-08-11T15:20:49;31.60;48.20
56076;DHT22;41951;49.022;12.066;2022-08-11T15:23:34;32.00;48.20
56076;DHT22;41951;49.022;12.066;2022-08-11T15:26:24;32.00;47.90
56076;DHT22;41951;49.022;12.066;2022-08-11T15:29:14;32.20;47.50
56076;DHT22;41951;49.022;12.066;2022-08-11T15:32:03;32.40;47.10
56076;DHT22;41951;49.022;12.066;2022-08-11T15:34:57;32.80;47.00
56076;DHT22;41951;49.022;12.066;2022-08-11T15:37:43;32.60;47.90
56076;DHT22;41951;49.022;12.066;2022-08-11T15:43:21;34.10;46.90
56076;DHT22;41951;49.022;12.066;2022-08-11T15:46:14;35.00;45.20
56076;DHT22;41951;49.022;12.066;2022-08-11T15:48:47;37.30;43.60
56076;DHT22;41951;49.022;12.066;2022-08-11T15:51:35;38.30;43.10
56076;DHT22;41951;49.022;12.066;2022-08-11T15:54:07;38.80;41.50
56076;DHT22;41951;49.022;12.066;2022-08-11T15:56:35;39.10;41.40
56076;DHT22;41951;49.022;12.066;2022-08-11T15:59:02;37.70;40.90
56076;DHT22;41951;49.022;12.066;2022-08-11T16:01:48;37.80;42.00
56076;DHT22;41951;49.022;12.066;2022-08-11T16:04:36;38.70;42.10
56076;DHT22;41951;49.022;12.066;2022-08-11T16:07:10;39.80;40.90
56076;DHT22;41951;49.022;12.066;2022-08-11T16:09:37;39.70;40.30
56076;DHT22;41951;49.022;12.066;2022-08-11T16:12:07;39.60;40.30
56076;DHT22;41951;49.022;12.066;2022-08-11T16:14:36;39.30;39.70
56076;DHT22;41951;49.022;12.066;2022-08-11T16:17:26;39.00;40.00
56076;DHT22;41951;49.022;12.066;2022-08-11T16:19:54;38.50;40.40
56076;DHT22;41951;49.022;12.066;2022-08-11T16:22:23;37.50;40.80
56076;DHT22;41951;49.022;12.066;2022-08-11T16:24:53;36.10;41.60
56076;DHT22;41951;49.022;12.066;2022-08-11T16:27:19;35.20;42.50
56076;DHT22;41951;49.022;12.066;2022-08-11T16:29:46;33.50;43.50
56076;DHT22;41951;49.022;12.066;2022-08-11T16:32:18;33.70;43.90
56076;DHT22;41951;49.022;12.066;2022-08-11T16:34:59;32.60;44.80
56076;DHT22;41951;49.022;12.066;2022-08-11T16:37:44;32.00;45.40
56076;DHT22;41951;49.022;12.066;2022-08-11T16:40:30;31.20;45.80
56076;DHT22;41951;49.022;12.066;2022-08-11T16:42:57;30.90;46.40
56076;DHT22;41951;49.022;12.066;2022-08-11T16:45:42;30.50;46.50
56076;DHT22;41951;49.022;12.066;2022-08-11T16:48:30;30.00;47.10
56076;DHT22;41951;49.022;12.066;2022-08-11T16:50:56;29.80;47.90
56076;DHT22;41951;49.022;12.066;2022-08-11T16:53:26;29.30;48.20
56076;DHT22;41951;49.022;12.066;2022-08-11T16:55:52;29.00;48.00
56076;DHT22;41951;49.022;12.066;2022-08-11T16:58:21;28.50;48.60
56076;DHT22;41951;49.022;12.066;2022-08-11T17:01:06;28.30;49.30
56076;DHT22;41951;49.022;12.066;2022-08-11T17:03:34;28.10;49.50
56076;DHT22;41951;49.022;12.066;2022-08-11T17:06:23;28.10;49.80
56076;DHT22;41951;49.022;12.066;2022-08-11T17:09:08;27.80;50.50
56076;DHT22;41951;49.022;12.066;2022-08-11T17:11:55;27.70;50.90
56076;DHT22;41951;49.022;12.066;2022-08-11T17:14:49;27.50;51.00
56076;DHT22;41951;49.022;12.066;2022-08-11T17:17:23;27.50;51.20
56076;DHT22;41951;49.022;12.066;2022-08-11T17:19:53;27.30;51.30
56076;DHT22;41951;49.022;12.066;2022-08-11T17:22:20;27.20;51.50
56076;DHT22;41951;49.022;12.066;2022-08-11T17:25:07;27.00;52.00
56076;DHT22;41951;49.022;12.066;2022-08-11T17:27:34;26.80;52.30
56076;DHT22;41951;49.022;12.066;2022-08-11T17:30:04;26.70;53.20
56076;DHT22;41951;49.022;12.066;2022-08-11T17:32:40;26.70;53.30
56076;DHT22;41951;49.022;12.066;2022-08-11T17:35:29;26.50;54.20
56076;DHT22;41951;49.022;12.066;2022-08-11T17:40:30;26.30;54.60
56076;DHT22;41951;49.022;12.066;2022-08-11T17:42:57;26.30;54.90
56076;DHT22;41951;49.022;12.066;2022-08-11T17:45:46;26.30;54.70
56076;DHT22;41951;49.022;12.066;2022-08-11T17:48:34;26.10;55.20
56076;DHT22;41951;49.022;12.066;2022-08-11T17:53:42;26.00;55.60
56076;DHT22;41951;49.022;12.066;2022-08-11T17:56:31;25.90;55.60
56076;DHT22;41951;49.022;12.066;2022-08-11T17:59:16;25.80;55.70
56076;DHT22;41951;49.022;12.066;2022-08-11T18:02:03;25.80;55.70
56076;DHT22;41951;49.022;12.066;2022-08-11T18:04:49;25.80;55.70
56076;DHT22;41951;49.022;12.066;2022-08-11T18:07:18;25.70;55.90
56076;DHT22;41951;49.022;12.066;2022-08-11T18:10:05;25.70;55.90
56076;DHT22;41951;49.022;12.066;2022-08-11T18:12:51;25.50;56.00
56076;DHT22;41951;49.022;12.066;2022-08-11T18:15:40;25.50;56.30
56076;DHT22;41951;49.022;12.066;2022-08-11T18:18:25;25.40;56.10
56076;DHT22;41951;49.022;12.066;2022-08-11T18:21:13;25.40;56.10
56076;DHT22;41951;49.022;12.066;2022-08-11T18:24:02;25.20;56.40
56076;DHT22;41951;49.022;12.066;2022-08-11T18:26:47;25.20;56.50
56076;DHT22;41951;49.022;12.066;2022-08-11T18:29:33;25.00;56.60
56076;DHT22;41951;49.022;12.066;2022-08-11T18:32:21;25.00;56.80
56076;DHT22;41951;49.022;12.066;2022-08-11T18:35:09;25.00;56.80
56076;DHT22;41951;49.022;12.066;2022-08-11T18:37:55;24.90;57.20
56076;DHT22;41951;49.022;12.066;2022-08-11T18:40:43;24.90;57.30
56076;DHT22;41951;49.022;12.066;2022-08-11T18:43:28;24.80;57.40
56076;DHT22;41951;49.022;12.066;2022-08-11T18:46:15;24.80;57.50
56076;DHT22;41951;49.022;12.066;2022-08-11T18:49:14;24.80;57.50
56076;DHT22;41951;49.022;12.066;2022-08-11T18:52:01;24.80;57.70
56076;DHT22;41951;49.022;12.066;2022-08-11T18:54:47;24.70;58.00
56076;DHT22;41951;49.022;12.066;2022-08-11T18:57:34;24.60;59.10
56076;DHT22;41951;49.022;12.066;2022-08-11T19:00:19;24.60;58.90
56076;DHT22;41951;49.022;12.066;2022-08-11T19:03:04;24.50;60.50
56076;DHT22;41951;49.022;12.066;2022-08-11T19:05:50;24.50;60.00
56076;DHT22;41951;49.022;12.066;2022-08-11T19:08:41;24.40;60.70
56076;DHT22;41951;49.022;12.066;2022-08-11T19:11:30;24.40;62.00
56076;DHT22;41951;49.022;12.066;2022-08-11T19:14:16;24.30;62.00
56076;DHT22;41951;49.022;12.066;2022-08-11T19:17:01;24.30;62.00
56076;DHT22;41951;49.022;12.066;2022-08-11T19:19:47;24.20;62.20
56076;DHT22;41951;49.022;12.066;2022-08-11T19:22:32;24.10;62.30
56076;DHT22;41951;49.022;12.066;2022-08-11T19:25:19;24.10;62.00
56076;DHT22;41951;49.022;12.066;2022-08-11T19:28:06;24.00;61.80
56076;DHT22;41951;49.022;12.066;2022-08-11T19:30:52;24.00;62.00